Last 7 Days

Upper Lake

Hourly Data | America/Los_Angeles
as of 9/3/26 4:33 PM PDT
Date & Time Temp (°F) RH (%) Dew Pt (°F) Wet Bulb (°F) Wind Dir (°) Wind Spd (mph) Wind Gust (mph) Leaf Wet (mins) BatVolt (V) Latest Rain (In) Max Rain Intensity (In/Hr) Precip 24Hr (In) Daily Rain (In) Daily Min Temp (°F) Daily Max Temp (°F) Daily Max Wind (mph) Daily Leaf Wet (Hrs)
9/3/26 - 1600 59.0 86 54.8 57.7 NW | 306 4.4 12.8 29.6 13.3 0.00 - 0.02 0.02 58.1 68.3 15.7 1.4
9/3/26 - 1500 64.4 69 53.8 58.8 NW | 306 4.3 15.7 0.0 13.3 0.00 - 0.02 0.02 58.1 68.3 15.7 0.9
9/3/26 - 1400 66.4 66 54.9 60.1 NW | 326 4.4 12.1 0.0 13.5 0.00 - 0.02 0.02 58.1 68.3 13.3 0.9
9/3/26 - 1300 65.4 74 56.8 61.1 NW | 315 3.8 11.3 0.0 13.4 0.00 - 0.02 0.02 58.1 66.3 13.3 0.9
9/3/26 - 1200 64.0 78 57.2 61.0 S | 180 3.9 13.3 0.0 13.5 0.00 - 0.02 0.02 58.1 65.1 13.3 0.9
9/3/26 - 1100 62.3 90 59.2 62.0 SSE | 153 3.3 7.1 0.0 13.1 0.00 - 0.02 0.02 58.1 63.3 7.1 0.9
9/3/26 - 1000 60.7 95 59.4 61.6 SSE | 155 1.7 5.6 13.4 12.8 0.00 - 0.02 0.02 58.1 61.7 5.6 0.9
9/3/26 - 0900 59.2 96 58.1 60.1 N | 353 1.3 4.2 8.2 12.6 0.01 0.01 0.02 0.02 58.1 60.7 4.5 0.7
9/3/26 - 0800 58.5 94 56.9 59.0 SSW | 199 0.5 2.6 32.3 12.5 0.01 0.01 0.01 0.01 58.1 60.7 4.5 0.5
9/3/26 - 0700 59.1 89 55.8 58.4 N | 3 1.3 3.5 0.0 12.5 0.00 - - 0.00 58.5 60.7 4.5 0.0
9/3/26 - 0600 58.7 87 55.0 57.7 N | 7 1.6 3.8 0.0 12.5 0.00 - 0.01 0.00 58.5 60.7 4.5 0.0
9/3/26 - 0500 59.7 79 53.3 57.0 NNE | 12 1.2 4.5 0.0 12.6 0.00 - 0.01 0.00 59.0 60.7 4.5 0.0
9/3/26 - 0400 60.2 74 51.9 56.2 NE | 47 1.2 3.9 0.0 12.6 0.00 - 0.01 0.00 60.0 60.7 4.2 0.0
9/3/26 - 0300 60.3 75 52.3 56.5 NE | 48 1.0 4.2 0.0 12.6 0.00 - 0.01 0.00 60.0 60.7 4.2 0.0
9/3/26 - 0200 60.1 72 51.0 55.6 ENE | 68 0.9 3.2 0.0 12.6 0.00 - 0.01 0.00 60.0 60.4 3.2 0.0
9/3/26 - 0100 60.5 69 50.5 55.5 N | 2 1.3 7.1 0.0 12.6 0.00 - 0.01 0.01 49.9 73.2 12.6 0.0
9/3/26 - 0000 61.2 66 49.6 55.1 NNW | 347 2.2 6.9 0.0 12.6 0.00 - 0.01 0.01 49.9 73.2 12.6 0.0
9/2/26 - 2300 61.8 63 49.0 55.1 WNW | 282 1.7 6.5 0.0 12.7 0.00 - 0.01 0.01 49.9 73.2 12.6 0.0
9/2/26 - 2200 62.0 62 48.8 55.0 SSE | 148 0.6 3.5 0.0 12.8 0.00 - 0.01 0.01 49.9 73.2 12.6 0.0
9/2/26 - 2100 63.0 58 48.0 54.9 S | 171 2.6 7.2 0.0 12.9 0.00 - 0.02 0.01 49.9 73.2 12.6 0.0
9/2/26 - 2000 64.6 55 48.0 55.5 SSW | 204 2.0 8.2 0.0 13.0 0.00 - 0.02 0.01 49.9 73.2 12.6 0.0
9/2/26 - 1900 67.0 52 48.7 56.6 SSW | 211 2.9 10.4 0.0 13.4 0.00 - 0.02 0.01 49.9 73.2 12.6 0.0
9/2/26 - 1800 69.6 45 47.2 56.6 SSW | 197 3.4 10.2 0.0 13.3 0.00 - 0.02 0.01 49.9 73.2 12.6 0.0
9/2/26 - 1700 70.8 46 49.2 58.0 SSW | 195 3.5 11.5 0.0 13.5 0.00 - 0.02 0.01 49.9 73.2 12.6 0.0
9/2/26 - 1600 70.3 48 49.7 58.1 SSW | 193 3.6 11.0 0.0 13.4 0.00 - 0.02 0.01 49.9 73.2 12.6 0.0
9/2/26 - 1500 70.5 52 52.2 59.6 SSE | 155 5.5 12.6 0.0 13.4 0.00 - 0.02 0.01 49.9 73.2 12.6 0.0
9/2/26 - 1400 69.1 57 53.3 59.9 SE | 139 4.8 11.6 0.0 13.5 0.00 - 0.02 0.01 49.9 71.0 12.3 0.0
9/2/26 - 1300 66.9 62 53.5 59.4 SSE | 151 3.6 11.6 0.0 13.5 0.00 - 0.02 0.01 49.9 68.1 12.3 0.0
9/2/26 - 1200 65.0 70 54.9 59.7 SE | 141 4.3 12.3 0.0 13.6 0.00 - 0.02 0.01 49.9 66.6 12.3 0.0
9/2/26 - 1100 61.6 82 55.9 59.3 SE | 137 2.0 5.9 0.0 13.4 0.00 - 0.02 0.01 49.9 64.1 5.9 0.0
9/2/26 - 1000 59.0 89 55.8 58.4 SE | 128 0.8 3.4 0.0 13.0 0.00 - 0.02 0.01 49.9 60.4 3.5 0.0
9/2/26 - 0900 55.9 95 54.4 56.2 E | 97 0.9 2.6 0.0 12.7 0.00 - 0.02 0.01 49.9 57.5 3.5 0.0
9/2/26 - 0800 54.3 96 53.4 54.9 SSE | 165 0.6 3.0 0.0 12.5 0.00 - 0.02 0.01 49.9 55.1 3.5 0.0
9/2/26 - 0700 54.1 95 52.8 54.4 NE | 54 0.4 3.2 0.0 12.5 0.01 0.01 0.02 0.01 49.9 54.6 3.5 0.0
9/2/26 - 0600 54.2 94 52.5 54.2 E | 97 0.3 2.3 0.0 12.5 0.00 - 0.01 0.00 49.9 54.6 3.5 0.0
9/2/26 - 0500 53.7 94 52.2 53.8 SE | 131 0.8 2.8 0.0 12.5 0.00 - 0.01 0.00 49.9 54.2 3.5 0.0
9/2/26 - 0400 52.8 94 51.1 52.8 NNE | 28 0.9 3.5 0.0 12.6 0.00 - 0.01 0.00 49.9 53.4 3.5 0.0
9/2/26 - 0300 52.2 95 50.9 52.4 ENE | 66 0.7 2.6 0.0 12.6 0.00 - 0.01 0.00 49.9 52.6 2.6 0.0
9/2/26 - 0200 51.0 97 50.1 51.3 NNW | 347 0.6 2.6 0.0 12.6 0.00 - 0.01 0.00 49.9 51.6 2.6 0.0
9/2/26 - 0100 50.0 96 48.9 50.2 NNW | 343 0.3 2.1 0.0 12.6 0.00 - 0.01 0.01 49.2 69.5 18.8 0.0
9/2/26 - 0000 50.7 95 49.3 50.7 NNW | 341 0.8 4.6 0.0 12.6 0.00 - 0.01 0.01 49.9 69.5 18.8 0.0
9/1/26 - 2300 53.2 91 50.6 52.7 NW | 320 0.7 4.4 0.0 12.6 0.00 - 0.01 0.01 51.3 69.5 18.8 0.0
9/1/26 - 2200 56.5 88 53.0 55.5 WNW | 300 1.5 7.6 0.0 12.7 0.01 0.01 0.01 0.01 55.4 69.5 18.8 0.0
9/1/26 - 2100 58.2 79 51.9 55.5 NW | 321 1.0 7.8 0.0 12.8 0.00 - - 0.00 55.8 69.5 18.8 0.0
9/1/26 - 2000 60.0 71 50.7 55.4 NW | 319 4.3 13.4 0.0 12.9 0.00 - - 0.00 55.8 69.5 18.8 0.0
9/1/26 - 1900 64.2 61 50.4 56.7 NW | 304 5.3 16.2 0.0 13.0 0.00 - - 0.00 55.8 69.5 18.8 0.0
9/1/26 - 1800 66.9 56 50.5 57.6 NW | 317 3.8 13.7 0.0 13.3 0.00 - - 0.00 55.8 69.5 18.8 0.0
9/1/26 - 1700 66.9 57 51.3 58.0 NNW | 331 5.2 16.3 0.0 13.5 0.00 - - 0.00 55.8 69.5 18.8 0.0
9/1/26 - 1600 67.2 57 51.4 58.2 NW | 310 4.3 18.8 0.0 13.4 0.00 - - 0.00 55.8 69.5 18.8 0.0
9/1/26 - 1500 68.3 52 50.0 57.7 SE | 124 2.5 7.2 0.0 13.4 0.00 - - 0.00 55.8 69.5 11.8 0.0
9/1/26 - 1400 66.4 58 51.1 57.8 S | 172 3.2 8.3 0.0 13.6 0.00 - - 0.00 55.8 68.3 11.8 0.0
9/1/26 - 1300 66.3 58 51.2 57.8 SSE | 156 2.4 7.0 0.0 13.5 0.00 - - 0.00 55.8 68.3 11.8 0.0
9/1/26 - 1200 64.0 62 50.7 56.8 WSW | 247 2.6 7.7 0.0 13.6 0.00 - - 0.00 55.8 65.0 11.8 0.0
9/1/26 - 1100 62.0 68 51.1 56.4 NE | 43 1.7 7.9 0.0 13.4 0.00 - - 0.00 55.8 63.5 11.8 0.0
9/1/26 - 1000 60.5 73 51.7 56.2 N | 4 3.2 9.6 0.0 13.2 0.00 - - 0.00 55.8 62.5 11.8 0.0
9/1/26 - 0900 57.1 83 52.0 55.1 W | 276 2.6 7.8 0.0 12.7 0.00 - - 0.00 55.8 58.0 11.8 0.0
9/1/26 - 0800 56.8 82 51.4 54.6 W | 275 2.1 6.5 0.0 12.6 0.00 - - 0.00 55.8 57.3 11.8 0.0
9/1/26 - 0700 57.0 78 50.2 54.0 NNW | 331 3.2 9.0 0.0 12.5 0.00 - - 0.00 55.8 57.3 11.8 0.0
9/1/26 - 0600 56.9 80 50.8 54.3 NW | 312 1.4 5.6 0.0 12.5 0.00 - - 0.00 55.8 57.3 11.8 0.0
9/1/26 - 0500 57.0 80 50.8 54.3 NNW | 342 2.7 7.3 0.0 12.5 0.00 - - 0.00 55.8 57.3 11.8 0.0
9/1/26 - 0400 56.9 80 50.7 54.2 NW | 319 3.7 10.7 0.0 12.6 0.00 - - 0.00 55.8 57.0 11.8 0.0
9/1/26 - 0300 56.7 80 50.7 54.1 NW | 312 1.8 10.7 0.0 12.6 0.00 - - 0.00 55.8 57.0 11.8 0.0
9/1/26 - 0200 56.6 82 51.1 54.4 NNW | 330 3.9 11.8 0.0 12.6 0.00 - - 0.00 55.8 57.0 11.8 0.0
9/1/26 - 0100 55.8 83 50.7 53.8 NNW | 328 3.6 9.3 0.0 12.6 0.00 - - 0.00 45.4 86.7 18.0 0.0
9/1/26 - 0000 56.2 81 50.4 53.8 NW | 304 3.6 11.7 0.0 12.6 0.00 - - 0.00 45.4 86.7 18.0 0.0
8/31/26 - 2300 57.1 78 50.4 54.1 WNW | 290 4.8 15.2 0.0 12.6 0.00 - - 0.00 45.4 86.7 18.0 0.0
8/31/26 - 2200 59.6 73 50.9 55.3 WNW | 292 5.8 16.8 0.0 12.7 0.00 - - 0.00 45.4 86.7 18.0 0.0
8/31/26 - 2100 63.0 65 51.2 56.7 WNW | 295 4.3 12.7 0.0 12.8 0.00 - - 0.00 45.4 86.7 18.0 0.0
8/31/26 - 2000 67.2 57 51.5 58.2 WNW | 286 5.9 18.0 0.0 12.9 0.00 - - 0.00 45.4 86.7 18.0 0.0
8/31/26 - 1900 72.4 50 52.6 60.4 WNW | 289 5.6 15.2 0.0 13.2 0.00 - - 0.00 45.4 86.7 17.2 0.0
8/31/26 - 1800 76.4 45 53.4 61.7 WNW | 291 5.4 14.4 0.0 13.4 0.00 - - 0.00 45.4 86.7 17.2 0.0
8/31/26 - 1700 80.3 40 53.6 62.7 NW | 307 5.7 17.2 0.0 13.3 0.00 - - 0.00 45.4 86.7 17.2 0.0
8/31/26 - 1600 83.4 35 53.0 62.9 WNW | 288 4.4 14.1 0.0 13.2 0.00 - - 0.00 45.4 86.7 15.0 0.0
8/31/26 - 1500 84.9 32 52.1 62.6 W | 270 4.2 15.0 0.0 13.2 0.00 - - 0.00 45.4 86.7 15.0 0.0
8/31/26 - 1400 83.7 30 49.1 60.9 SSE | 148 4.0 9.8 0.0 13.2 0.00 - - 0.00 45.4 85.9 11.2 0.0
8/31/26 - 1300 81.2 35 51.0 61.4 SSE | 150 4.4 9.4 0.0 13.2 0.00 - - 0.00 45.4 82.5 11.2 0.0
8/31/26 - 1200 79.5 37 51.2 61.1 SSE | 157 2.7 11.2 0.0 13.3 0.00 - - 0.00 45.4 81.1 11.2 0.0
8/31/26 - 1100 76.3 37 48.2 58.9 SSW | 208 1.9 5.4 0.0 13.2 0.00 - - 0.00 45.4 78.7 5.6 0.0
8/31/26 - 1000 70.3 48 49.5 58.0 SE | 139 1.5 5.6 0.0 12.7 0.00 - - 0.00 45.4 73.6 5.6 0.0
8/31/26 - 0900 61.6 62 48.4 54.6 E | 98 0.6 3.1 0.0 12.6 0.00 - - 0.00 45.4 67.0 3.1 0.0
8/31/26 - 0800 49.3 86 45.3 47.7 SSE | 152 0.2 2.4 0.0 12.5 0.00 - - 0.00 45.4 55.1 2.6 0.0
8/31/26 - 0700 45.9 90 43.0 44.9 N | 355 0.1 2.6 0.0 12.5 0.00 - - 0.00 45.4 52.6 2.6 0.0
8/31/26 - 0600 46.6 88 43.4 45.4 N | 7 0.2 1.6 0.0 12.5 0.00 - - 0.00 46.2 52.6 1.9 0.0
8/31/26 - 0500 47.8 86 43.9 46.3 ESE | 110 0.0 0.9 0.0 12.5 0.00 - - 0.00 47.1 52.6 1.9 0.0
8/31/26 - 0400 48.9 82 43.8 46.8 ESE | 122 0.0 0.8 0.0 12.6 0.00 - - 0.00 48.0 52.6 1.9 0.0
8/31/26 - 0300 50.2 80 44.4 47.7 NNE | 21 0.2 1.9 0.0 12.6 0.00 - - 0.00 49.7 52.6 1.9 0.0
8/31/26 - 0200 52.0 76 44.6 48.6 NW | 309 0.0 1.1 0.0 12.6 0.00 - - 0.00 51.3 52.6 1.1 0.0
8/31/26 - 0100 54.2 72 45.2 49.9 N | 349 0.0 1.1 0.0 12.6 0.00 - - 0.00 44.8 91.3 13.6 0.0
8/31/26 - 0000 56.8 65 45.3 51.1 NNW | 331 0.1 1.8 0.0 12.6 0.00 - - 0.00 44.8 91.3 13.6 0.0
8/30/26 - 2300 59.6 59 45.4 52.3 NW | 320 0.4 2.3 0.0 12.6 0.00 - - 0.00 44.8 91.3 13.6 0.0
8/30/26 - 2200 65.5 50 46.6 54.9 NNW | 338 0.6 3.3 0.0 12.6 0.00 - - 0.00 44.8 91.3 13.6 0.0
8/30/26 - 2100 74.4 39 47.5 58.1 NW | 307 2.1 7.7 0.0 12.7 0.00 - - 0.00 44.8 91.3 13.6 0.0
8/30/26 - 2000 78.8 34 47.8 59.2 WNW | 297 3.5 13.6 0.0 12.8 0.00 - - 0.00 44.8 91.3 13.6 0.0
8/30/26 - 1900 84.1 30 49.7 61.3 WNW | 298 4.3 12.8 0.0 13.2 0.00 - - 0.00 44.8 91.3 13.4 0.0
8/30/26 - 1800 88.1 28 50.9 62.5 WNW | 303 4.2 13.4 0.0 13.1 0.00 - - 0.00 44.8 91.3 13.4 0.0
8/30/26 - 1700 89.3 20 42.6 59.2 SE | 144 2.9 8.1 0.0 13.1 0.00 - - 0.00 44.8 91.3 12.8 0.0
8/30/26 - 1600 88.8 21 44.4 59.8 SSE | 153 3.8 10.0 0.0 13.1 0.00 - - 0.00 44.8 90.1 12.8 0.0
8/30/26 - 1500 87.5 22 44.2 59.4 SE | 142 3.4 9.6 0.0 13.1 0.00 - - 0.00 44.8 88.5 12.8 0.0
8/30/26 - 1400 85.1 27 47.2 60.3 SSE | 156 4.7 10.5 0.0 13.2 0.00 - - 0.00 44.8 86.9 12.8 0.0
8/30/26 - 1300 82.4 32 49.9 61.1 SSE | 150 4.6 12.8 0.0 13.2 0.00 - - 0.00 44.8 84.5 12.8 0.0
8/30/26 - 1200 78.7 38 51.0 60.9 SE | 141 2.6 8.0 0.0 13.3 0.00 - - 0.00 44.8 80.7 8.0 0.0
8/30/26 - 1100 74.3 45 51.7 60.3 SE | 146 1.9 6.9 0.0 13.2 0.00 - - 0.00 44.8 76.1 6.9 0.0
8/30/26 - 1000 68.8 55 51.8 58.9 SE | 127 1.2 4.9 0.0 12.7 0.00 - - 0.00 44.8 71.8 4.9 0.0
8/30/26 - 0900 61.4 65 49.3 55.0 ESE | 118 0.4 2.4 0.0 12.6 0.00 - - 0.00 44.8 66.0 2.5 0.0
8/30/26 - 0800 48.5 90 45.6 47.5 NE | 40 0.4 1.6 0.0 12.5 0.00 - - 0.00 44.8 56.0 2.5 0.0
8/30/26 - 0700 45.3 93 43.4 44.8 SE | 130 0.0 1.1 0.0 12.5 0.00 - - 0.00 44.8 52.2 2.5 0.0
8/30/26 - 0600 46.3 92 44.2 45.8 NNE | 18 0.3 2.5 0.0 12.5 0.00 - - 0.00 45.6 52.2 2.5 0.0
8/30/26 - 0500 47.4 90 44.7 46.5 W | 273 0.0 1.4 0.0 12.5 0.00 - - 0.00 46.6 52.2 2.3 0.0
8/30/26 - 0400 48.0 88 44.8 46.9 WNW | 283 0.1 2.3 0.0 12.6 0.00 - - 0.00 47.6 52.2 2.3 0.0
8/30/26 - 0300 49.0 87 45.3 47.6 WNW | 286 0.0 1.8 0.0 12.6 0.00 - - 0.00 48.0 52.2 1.8 0.0
8/30/26 - 0200 50.8 84 46.3 49.0 N | 0 0.0 0.0 0.0 12.6 0.00 - - 0.00 49.6 52.2 0.0 0.0
8/30/26 - 0100 54.4 76 47.0 51.0 E | 98 0.3 3.9 0.0 12.6 0.00 - - 0.00 41.1 88.5 17.3 0.0
8/30/26 - 0000 58.4 65 46.6 52.4 NNW | 346 0.8 3.7 0.0 12.6 0.00 - - 0.00 41.1 88.5 17.3 0.0
8/29/26 - 2300 61.2 60 47.0 53.7 N | 357 1.1 5.0 0.0 12.6 0.00 - - 0.00 41.1 88.5 17.3 0.0
8/29/26 - 2200 65.7 52 47.8 55.6 NNW | 335 2.2 8.3 0.0 12.7 0.00 - - 0.00 41.1 88.5 17.3 0.0
8/29/26 - 2100 68.8 48 48.2 56.9 WNW | 299 3.7 13.6 0.0 12.8 0.00 - - 0.00 41.1 88.5 17.3 0.0
8/29/26 - 2000 72.2 43 48.3 57.9 WNW | 292 3.7 11.7 0.0 12.9 0.00 - - 0.00 41.1 88.5 17.3 0.0
8/29/26 - 1900 77.2 37 49.1 59.5 WNW | 296 5.5 17.3 0.0 13.3 0.00 - - 0.00 41.1 88.5 17.3 0.0
8/29/26 - 1800 81.0 35 50.9 61.3 WNW | 296 4.9 14.8 0.0 13.3 0.00 - - 0.00 41.1 88.5 16.6 0.0
8/29/26 - 1700 83.0 34 51.6 62.0 WNW | 286 5.1 16.6 0.0 13.2 0.00 - - 0.00 41.1 88.5 16.6 0.0
8/29/26 - 1600 85.0 27 47.2 60.3 WNW | 288 4.4 13.5 0.0 13.2 0.00 - - 0.00 41.1 88.5 14.1 0.0
8/29/26 - 1500 86.1 27 47.7 60.7 WNW | 301 4.9 14.1 0.0 13.1 0.00 - - 0.00 41.1 88.5 14.1 0.0
8/29/26 - 1400 84.9 25 45.6 59.6 WNW | 289 3.3 11.7 0.0 13.2 0.00 - - 0.00 41.1 86.7 11.7 0.0
8/29/26 - 1300 83.0 29 47.5 60.0 W | 263 2.9 11.1 0.0 13.2 0.00 - - 0.00 41.1 84.7 11.1 0.0
8/29/26 - 1200 78.9 34 48.1 59.4 SSW | 212 3.1 9.1 0.0 13.3 0.00 - - 0.00 41.1 81.4 9.1 0.0
8/29/26 - 1100 74.0 40 48.3 58.4 SSW | 199 2.4 7.5 0.0 13.3 0.00 - - 0.00 41.1 76.5 7.5 0.0
8/29/26 - 1000 68.1 47 47.0 56.0 SE | 137 1.7 6.8 0.0 12.7 0.00 - - 0.00 41.1 71.6 6.8 0.0
8/29/26 - 0900 58.6 60 44.6 51.4 ESE | 112 0.9 3.3 0.0 12.6 0.00 - - 0.00 41.1 65.2 3.3 0.0
8/29/26 - 0800 44.9 88 41.4 43.5 SSE | 156 0.1 1.6 0.0 12.5 0.00 - - 0.00 41.1 52.3 2.8 0.0
8/29/26 - 0700 41.8 91 39.4 40.9 N | 3 0.1 2.1 0.0 12.5 0.00 - - 0.00 41.1 47.6 2.8 0.0
8/29/26 - 0600 42.0 90 39.2 40.9 N | 353 0.0 1.2 0.0 12.5 0.00 - - 0.00 41.1 47.6 2.8 0.0
8/29/26 - 0500 43.1 88 39.8 41.8 NNW | 343 0.1 1.8 0.0 12.6 0.00 - - 0.00 42.6 47.6 2.8 0.0
8/29/26 - 0400 44.3 86 40.3 42.7 NNW | 346 0.0 1.0 0.0 12.6 0.00 - - 0.00 43.4 47.6 2.8 0.0
8/29/26 - 0300 46.0 81 40.6 43.7 NW | 308 0.1 1.9 0.0 12.6 0.00 - - 0.00 45.4 47.6 2.8 0.0
8/29/26 - 0200 47.0 80 41.1 44.5 NW | 322 0.3 2.8 0.0 12.6 0.00 - - 0.00 46.4 47.6 2.8 0.0
8/29/26 - 0100 48.7 77 41.7 45.6 NNW | 340 0.1 1.4 0.0 12.6 0.00 - - 0.00 47.3 84.9 11.2 0.0
8/29/26 - 0000 50.7 72 42.0 46.7 NNW | 339 0.1 2.0 0.0 12.6 0.00 - - 0.00 49.3 84.9 11.2 0.0
8/28/26 - 2300 54.4 64 42.4 48.6 NNW | 347 0.2 1.9 0.0 12.6 0.00 - - 0.00 52.8 84.9 11.2 0.0
8/28/26 - 2200 60.0 54 43.2 51.3 N | 357 0.6 3.7 0.0 12.7 0.00 - - 0.00 53.7 84.9 11.2 0.0
8/28/26 - 2100 69.9 40 44.6 55.3 NW | 325 1.4 5.9 0.0 12.8 0.00 - - 0.00 53.7 84.9 11.2 0.0
8/28/26 - 2000 75.4 28 40.3 55.1 WNW | 296 2.8 8.4 0.0 12.9 0.00 - - 0.00 53.7 84.9 11.2 0.0
8/28/26 - 1900 79.0 30 44.7 57.9 W | 279 3.1 11.2 0.0 13.3 0.00 - - 0.00 53.7 84.9 11.2 0.0
8/28/26 - 1800 80.4 32 47.4 59.4 WNW | 290 3.3 10.4 0.0 13.2 0.00 - - 0.00 53.7 84.9 11.1 0.0
8/28/26 - 1700 82.2 26 43.4 58.1 WNW | 301 3.5 10.8 0.0 13.3 0.00 - - 0.00 53.7 84.9 11.1 0.0
8/28/26 - 1600 83.6 19 36.8 55.9 WNW | 295 3.2 11.1 0.0 13.2 0.00 - - 0.00 53.7 84.9 11.1 0.0
8/28/26 - 1500 80.9 20 36.4 55.1 SSE | 157 3.9 8.2 0.0 13.3 0.00 - - 0.00 53.7 83.0 10.7 0.0
8/28/26 - 1400 81.7 24 41.4 57.1 SSE | 148 3.6 10.7 0.0 13.2 0.00 - - 0.00 53.7 83.0 10.7 0.0
8/28/26 - 1300 79.8 26 42.0 57.0 SSE | 147 2.3 6.4 0.0 13.3 0.00 - - 0.00 53.7 82.1 6.6 0.0
8/28/26 - 1200 80.5 26 42.6 57.3 SSE | 159 1.1 3.9 0.0 13.3 0.00 - - 0.00 53.7 82.1 6.6 0.0
8/28/26 - 1100 76.0 35 46.1 57.8 SSE | 150 2.1 6.6 0.0 13.3 0.00 - - 0.00 53.7 80.6 6.6 0.0
8/28/26 - 1000 67.0 52 48.7 56.6 SE | 139 1.0 3.8 0.0 12.9 0.00 - - 0.00 53.7 71.2 3.8 0.0
8/28/26 - 0900 60.1 66 48.8 54.3 SSE | 151 0.7 2.4 0.0 12.7 0.00 - - 0.00 53.7 63.5 3.5 0.0
8/28/26 - 0800 55.0 78 48.1 51.9 NNW | 332 0.2 2.1 0.0 12.6 0.00 - - 0.00 53.7 59.8 3.5 0.0
8/28/26 - 0700 54.0 79 47.6 51.2 SSE | 159 0.1 2.1 0.0 12.5 0.00 - - 0.00 53.7 59.8 3.5 0.0
8/28/26 - 0600 54.5 79 48.1 51.7 E | 99 0.3 2.7 0.0 12.5 0.00 - - 0.00 54.1 59.8 3.5 0.0
8/28/26 - 0500 55.3 75 47.4 51.7 N | 2 0.5 2.3 0.0 12.5 0.00 - - 0.00 54.8 59.8 3.5 0.0
8/28/26 - 0400 56.2 71 47.0 51.8 SE | 133 0.2 2.1 0.0 12.5 0.00 - - 0.00 55.6 59.8 3.5 0.0
8/28/26 - 0300 57.9 67 47.2 52.6 W | 272 0.6 3.5 0.0 12.6 0.00 - - 0.00 56.4 59.8 3.5 0.0
8/28/26 - 0200 58.6 68 48.0 53.3 SSE | 163 0.3 3.5 0.0 12.6 0.00 - - 0.00 57.3 59.8 3.5 0.0
8/28/26 - 0100 65.4 50 46.0 54.6 NNW | 346 1.5 8.4 0.0 12.6 0.00 - - 0.00 51.8 95.7 18.7 0.0
8/28/26 - 0000 70.5 42 46.2 56.4 NNW | 346 3.0 12.8 0.0 12.6 0.00 - - 0.00 51.8 95.7 18.7 0.0
8/27/26 - 2300 73.4 42 49.0 58.6 NW | 322 4.5 12.1 0.0 12.6 0.00 - - 0.00 51.8 95.7 18.7 0.0
8/27/26 - 2200 74.9 40 49.1 59.0 WNW | 295 3.7 11.7 0.0 12.6 0.00 - - 0.00 51.8 95.7 18.7 0.0
8/27/26 - 2100 77.3 34 46.9 58.5 WNW | 297 2.5 10.1 0.0 12.7 0.00 - - 0.00 51.8 95.7 18.7 0.0
8/27/26 - 2000 82.2 29 47.2 59.7 NW | 304 3.3 11.1 0.0 12.8 0.00 - - 0.00 51.8 95.7 18.7 0.0
8/27/26 - 1900 87.1 26 48.5 61.2 WNW | 303 4.3 15.0 0.0 13.1 0.00 - - 0.00 51.8 95.7 18.7 0.0
8/27/26 - 1800 90.5 26 51.2 63.0 NW | 317 4.6 14.1 0.0 13.1 0.00 - - 0.00 51.8 95.7 18.7 0.0
8/27/26 - 1700 93.3 22 48.6 62.2 WNW | 295 4.6 18.7 0.0 13.0 0.00 - - 0.00 51.8 95.7 18.7 0.0
Max 93.3 97 59.4 63.0 - 5.9 18.8 32.3 13.6 0.01 0.01 0.02 0.02 60.0 95.7 18.8 1.4
Avg 64.6 62 48.7 55.3 - 2.3 7.6 0.5 12.9 0.00 0.01 0.02 - - - - -
Min 41.8 19 36.4 40.9 - 0.0 0.0 0.0 12.5 0.00 0.01 0.01 0.00 41.1 47.6 0.0 0.0
Total - - - - - - - - - 0.04 - - - - - - -